Time;durP1;ratioP1;P1;durP2;ratioP2;P2;SDS_P1;SDS_P2;PMS_P1;PMS_P2;Temp;Humidity;BMP_temperature;BMP_pressure;BME280_temperature;BME280_humidity;BME280_pressure;Samples;Min_cycle;Max_cycle;Signal;HPM_P1;HPM_P2
2023/07/28 00:01:09;;;;;;;1.77;1.67;;;;;;;;;;4967315;28;20472;-70
2023/07/28 00:03:35;;;;;;;1.90;1.90;;;;;;;;;;4968232;28;20462;-70
2023/07/28 00:06:01;;;;;;;1.90;1.90;;;;;;;;;;4966373;28;20453;-70
2023/07/28 00:08:27;;;;;;;13.73;3.73;;;;;;;;;;4968612;28;20442;-70
2023/07/28 00:10:53;;;;;;;1.57;1.57;;;;;;;;;;4970902;28;20446;-70
2023/07/28 00:13:19;;;;;;;1.33;1.33;;;;;;;;;;4968769;28;20453;-70
2023/07/28 00:15:45;;;;;;;1.60;1.60;;;;;;;;;;4970532;28;20473;-70
2023/07/28 00:18:11;;;;;;;1.10;1.10;;;;;;;;;;4969947;28;20477;-70
2023/07/28 00:20:37;;;;;;;1.77;1.77;;;;;;;;;;4970228;28;20433;-70
2023/07/28 00:23:03;;;;;;;1.70;1.70;;;;;;;;;;4970992;28;20445;-70
2023/07/28 00:25:29;;;;;;;1.37;1.30;;;;;;;;;;4969381;28;20464;-70
2023/07/28 00:27:55;;;;;;;2.97;1.63;;;;;;;;;;4968846;28;20477;-70
2023/07/28 00:30:23;;;;;;;1.23;1.23;;;;;;;;;;4970584;28;20430;-70
2023/07/28 00:32:48;;;;;;;1.30;1.30;;;;;;;;;;4970998;28;20793;-70
2023/07/28 00:35:14;;;;;;;2.20;2.10;;;;;;;;;;4970648;28;20920;-70
2023/07/28 00:37:40;;;;;;;4.43;1.53;;;;;;;;;;4966428;28;21376;-70
2023/07/28 00:40:07;;;;;;;1.63;1.63;;;;;;;;;;4970645;28;20471;-70
2023/07/28 00:42:33;;;;;;;1.73;1.70;;;;;;;;;;4970261;28;20445;-70
2023/07/28 00:44:59;;;;;;;1.47;1.37;;;;;;;;;;4970949;28;20434;-70
2023/07/28 00:47:25;;;;;;;4.37;1.50;;;;;;;;;;4968441;28;20865;-70
2023/07/28 00:49:51;;;;;;;2.00;1.73;;;;;;;;;;4969226;28;20446;-70
2023/07/28 00:52:17;;;;;;;1.27;1.27;;;;;;;;;;4970468;28;20493;-70
2023/07/28 00:54:43;;;;;;;1.83;1.83;;;;;;;;;;4970398;28;20835;-70
2023/07/28 00:57:09;;;;;;;7.10;1.80;;;;;;;;;;4968911;28;20539;-70
2023/07/28 00:59:35;;;;;;;1.60;1.60;;;;;;;;;;4969494;28;20446;-70
2023/07/28 01:02:01;;;;;;;3.33;1.60;;;;;;;;;;4970161;28;20529;-70
2023/07/28 01:04:27;;;;;;;1.97;1.87;;;;;;;;;;4969856;28;20430;-70
2023/07/28 01:07:16;;;;;;;1.60;1.60;;;;;;;;;;4969469;28;20861;-70
2023/07/28 01:09:55;;;;;;;1.80;1.70;;;;;;;;;;4968439;28;21002;-70
2023/07/28 01:12:22;;;;;;;1.57;1.07;;;;;;;;;;4968498;28;20450;-71
2023/07/28 01:14:48;;;;;;;3.80;1.20;;;;;;;;;;4968924;28;20463;-71
2023/07/28 01:17:14;;;;;;;3.67;1.50;;;;;;;;;;4970072;28;20485;-70
2023/07/28 01:19:40;;;;;;;1.50;1.40;;;;;;;;;;4968523;28;20926;-70
2023/07/28 01:22:21;;;;;;;1.20;1.20;;;;;;;;;;4968470;28;20879;-70
2023/07/28 01:24:47;;;;;;;3.03;1.80;;;;;;;;;;4969114;28;20465;-70
2023/07/28 01:27:13;;;;;;;2.10;1.43;;;;;;;;;;4969062;28;20461;-70
2023/07/28 01:29:40;;;;;;;2.83;1.80;;;;;;;;;;4969000;28;20199;-70
2023/07/28 01:32:06;;;;;;;2.40;1.47;;;;;;;;;;4969328;28;20456;-70
2023/07/28 01:34:32;;;;;;;3.90;3.00;;;;;;;;;;4967980;28;20442;-70
2023/07/28 01:36:58;;;;;;;1.50;1.50;;;;;;;;;;4969894;28;20482;-70
2023/07/28 01:39:24;;;;;;;1.37;1.37;;;;;;;;;;4968985;28;20926;-70
2023/07/28 01:41:50;;;;;;;1.60;1.50;;;;;;;;;;4969706;28;21863;-70
2023/07/28 01:44:16;;;;;;;1.70;1.60;;;;;;;;;;4969945;28;20441;-70
2023/07/28 01:46:42;;;;;;;2.23;1.50;;;;;;;;;;4969728;28;20454;-71
2023/07/28 01:49:08;;;;;;;2.30;1.90;;;;;;;;;;4968342;28;20877;-70
2023/07/28 01:51:34;;;;;;;1.90;1.90;;;;;;;;;;4969151;28;20478;-70
2023/07/28 01:54:00;;;;;;;2.00;2.00;;;;;;;;;;4968169;28;20529;-70
2023/07/28 01:56:26;;;;;;;2.60;2.13;;;;;;;;;;4969105;28;20485;-70
2023/07/28 01:58:52;;;;;;;3.23;1.60;;;;;;;;;;4969472;28;20434;-70
2023/07/28 02:01:18;;;;;;;1.97;1.70;;;;;;;;;;4967210;28;20876;-70
2023/07/28 02:03:44;;;;;;;1.50;1.50;;;;;;;;;;4969119;28;20418;-70
2023/07/28 02:06:10;;;;;;;1.83;1.70;;;;;;;;;;4969381;28;20492;-70
2023/07/28 02:08:36;;;;;;;1.43;1.43;;;;;;;;;;4968356;28;20481;-70
2023/07/28 02:11:02;;;;;;;1.57;1.57;;;;;;;;;;4967908;28;20438;-70
2023/07/28 02:13:28;;;;;;;1.80;1.80;;;;;;;;;;4969834;28;21007;-70
2023/07/28 02:15:54;;;;;;;4.37;1.70;;;;;;;;;;4969274;28;20504;-70
2023/07/28 02:18:19;;;;;;;3.17;1.60;;;;;;;;;;4968698;28;20545;-70
2023/07/28 02:20:49;;;;;;;2.73;1.80;;;;;;;;;;4968050;28;20449;-70
2023/07/28 02:23:15;;;;;;;2.33;2.00;;;;;;;;;;4968212;28;20445;-70
2023/07/28 02:25:40;;;;;;;1.93;1.83;;;;;;;;;;4968174;28;20430;-70
2023/07/28 02:28:07;;;;;;;1.90;1.80;;;;;;;;;;4969182;28;20453;-70
2023/07/28 02:30:33;;;;;;;2.40;2.30;;;;;;;;;;4966591;28;20457;-70
2023/07/28 02:32:59;;;;;;;5.53;1.80;;;;;;;;;;4968259;28;20437;-70
2023/07/28 02:35:25;;;;;;;1.90;1.90;;;;;;;;;;4968733;28;21024;-70
2023/07/28 02:37:51;;;;;;;2.47;1.80;;;;;;;;;;4967889;28;20987;-70
2023/07/28 02:40:17;;;;;;;1.73;1.63;;;;;;;;;;4968623;28;20468;-70
2023/07/28 02:42:43;;;;;;;1.80;1.70;;;;;;;;;;4968439;28;20784;-70
2023/07/28 02:45:10;;;;;;;1.97;1.90;;;;;;;;;;4968789;28;20426;-70
2023/07/28 02:47:36;;;;;;;1.87;1.77;;;;;;;;;;4969085;28;20518;-70
2023/07/28 02:50:02;;;;;;;2.20;2.10;;;;;;;;;;4965205;28;20525;-70
2023/07/28 02:52:28;;;;;;;1.90;1.80;;;;;;;;;;4967803;28;20564;-70
2023/07/28 02:54:54;;;;;;;1.93;1.80;;;;;;;;;;4968302;28;20446;-70
2023/07/28 02:57:20;;;;;;;1.83;1.83;;;;;;;;;;4967335;28;20481;-70
2023/07/28 02:59:46;;;;;;;5.90;1.87;;;;;;;;;;4968418;28;20791;-70
2023/07/28 03:02:12;;;;;;;1.73;1.73;;;;;;;;;;4968076;28;20454;-70
2023/07/28 03:04:38;;;;;;;3.67;2.20;;;;;;;;;;4968397;28;20454;-70
2023/07/28 03:07:04;;;;;;;1.47;1.47;;;;;;;;;;4968431;28;20495;-70
2023/07/28 03:09:30;;;;;;;2.97;1.73;;;;;;;;;;4968443;28;20521;-70
2023/07/28 03:11:56;;;;;;;2.70;2.50;;;;;;;;;;4967556;28;20533;-70
2023/07/28 03:14:22;;;;;;;3.40;3.10;;;;;;;;;;4968826;28;20434;-70
2023/07/28 03:16:48;;;;;;;1.60;1.53;;;;;;;;;;4967421;28;20482;-70
2023/07/28 03:19:13;;;;;;;1.63;1.63;;;;;;;;;;4967551;28;20410;-70
2023/07/28 03:21:39;;;;;;;1.77;1.77;;;;;;;;;;4965952;28;21034;-70
2023/07/28 03:24:06;;;;;;;6.97;6.47;;;;;;;;;;4967423;28;20465;-71
2023/07/28 03:26:32;;;;;;;13.80;12.50;;;;;;;;;;4968796;28;20430;-70
2023/07/28 03:28:57;;;;;;;12.53;11.33;;;;;;;;;;4968144;28;20453;-70
2023/07/28 03:31:24;;;;;;;9.73;8.90;;;;;;;;;;4967663;28;20446;-70
2023/07/28 03:33:49;;;;;;;8.00;7.47;;;;;;;;;;4966694;28;20434;-70
2023/07/28 03:36:15;;;;;;;7.80;7.07;;;;;;;;;;4967190;28;20505;-70
2023/07/28 03:38:41;;;;;;;5.83;5.10;;;;;;;;;;4968227;28;20985;-70
2023/07/28 03:41:07;;;;;;;3.47;3.27;;;;;;;;;;4967705;28;20545;-70
2023/07/28 03:43:33;;;;;;;2.50;2.40;;;;;;;;;;4967488;28;21297;-70
2023/07/28 03:45:59;;;;;;;4.53;2.37;;;;;;;;;;4968435;28;20434;-70
2023/07/28 03:48:25;;;;;;;2.67;2.47;;;;;;;;;;4968137;28;20422;-70
2023/07/28 03:50:51;;;;;;;2.53;2.43;;;;;;;;;;4966516;28;20453;-70
2023/07/28 03:53:17;;;;;;;5.20;2.67;;;;;;;;;;4965592;28;20588;-70
2023/07/28 03:55:43;;;;;;;1.87;1.87;;;;;;;;;;4966816;28;20487;-70
2023/07/28 03:58:09;;;;;;;2.70;2.50;;;;;;;;;;4967949;28;20938;-70
2023/07/28 04:00:35;;;;;;;2.40;2.30;;;;;;;;;;4967359;28;20448;-70
2023/07/28 04:03:01;;;;;;;3.00;2.00;;;;;;;;;;4967458;28;20537;-70
2023/07/28 04:05:27;;;;;;;2.97;2.87;;;;;;;;;;4967276;28;20445;-70
2023/07/28 04:07:53;;;;;;;2.83;2.63;;;;;;;;;;4967819;28;20568;-70
2023/07/28 04:10:19;;;;;;;4.83;2.00;;;;;;;;;;4965484;28;20450;-70
2023/07/28 04:12:45;;;;;;;2.47;2.37;;;;;;;;;;4965493;28;20454;-70
2023/07/28 04:15:11;;;;;;;2.37;2.23;;;;;;;;;;4966801;28;21015;-70
2023/07/28 04:17:37;;;;;;;2.27;2.27;;;;;;;;;;4967693;28;20494;-70
2023/07/28 04:20:03;;;;;;;2.57;2.57;;;;;;;;;;4966414;28;20433;-70
2023/07/28 04:22:29;;;;;;;6.00;2.20;;;;;;;;;;4966737;28;20445;-70
2023/07/28 04:24:55;;;;;;;5.00;1.90;;;;;;;;;;4965936;28;20442;-68
2023/07/28 04:27:21;;;;;;;2.23;2.13;;;;;;;;;;4966587;28;20442;-70
2023/07/28 04:29:47;;;;;;;1.87;1.87;;;;;;;;;;4963856;28;20430;-70
2023/07/28 04:32:13;;;;;;;4.00;1.70;;;;;;;;;;4965254;28;20457;-70
2023/07/28 04:34:39;;;;;;;1.90;1.90;;;;;;;;;;4964739;28;20483;-70
2023/07/28 04:37:05;;;;;;;1.90;1.90;;;;;;;;;;4965853;28;20592;-70
2023/07/28 04:39:31;;;;;;;3.73;1.67;;;;;;;;;;4964821;28;20858;-70
2023/07/28 04:41:57;;;;;;;2.13;2.03;;;;;;;;;;4966198;28;20426;-70
2023/07/28 04:44:23;;;;;;;2.10;2.00;;;;;;;;;;4967759;28;20450;-70
2023/07/28 04:46:49;;;;;;;1.60;1.47;;;;;;;;;;4968082;28;20434;-70
2023/07/28 04:49:15;;;;;;;1.90;1.90;;;;;;;;;;4967209;28;20495;-70
2023/07/28 04:51:41;;;;;;;1.80;1.80;;;;;;;;;;4968179;28;20834;-70
2023/07/28 04:54:07;;;;;;;2.20;1.60;;;;;;;;;;4967720;28;20468;-70
2023/07/28 04:56:33;;;;;;;1.80;1.80;;;;;;;;;;4970340;28;20569;-70
2023/07/28 04:58:59;;;;;;;2.03;2.03;;;;;;;;;;4970634;28;20442;-70
2023/07/28 05:01:25;;;;;;;1.87;1.87;;;;;;;;;;4969694;28;20487;-70
2023/07/28 05:03:51;;;;;;;1.90;1.87;;;;;;;;;;4968906;28;20430;-70
2023/07/28 05:06:17;;;;;;;2.00;1.90;;;;;;;;;;4970183;28;20541;-70
2023/07/28 05:08:43;;;;;;;2.57;1.70;;;;;;;;;;4970742;28;20442;-70
2023/07/28 05:11:09;;;;;;;2.87;1.97;;;;;;;;;;4970037;28;20429;-70
2023/07/28 05:13:35;;;;;;;2.40;1.80;;;;;;;;;;4970794;28;20930;-70
2023/07/28 05:16:01;;;;;;;2.20;1.83;;;;;;;;;;4969482;28;20855;-70
2023/07/28 05:18:27;;;;;;;2.00;1.90;;;;;;;;;;4969879;28;20496;-70
2023/07/28 05:20:53;;;;;;;2.10;1.90;;;;;;;;;;4968479;28;20441;-70
2023/07/28 05:23:19;;;;;;;1.87;1.77;;;;;;;;;;4969476;28;20488;-67
2023/07/28 05:25:45;;;;;;;2.43;2.27;;;;;;;;;;4967576;28;20450;-69
2023/07/28 05:28:11;;;;;;;2.03;1.93;;;;;;;;;;4968665;28;20963;-69
2023/07/28 05:30:37;;;;;;;5.83;1.90;;;;;;;;;;4969462;28;20865;-69
2023/07/28 05:33:03;;;;;;;2.20;2.10;;;;;;;;;;4965870;28;20446;-69
2023/07/28 05:35:29;;;;;;;5.57;2.70;;;;;;;;;;4969181;28;20449;-69
2023/07/28 05:37:55;;;;;;;1.90;1.60;;;;;;;;;;4969641;28;20489;-69
2023/07/28 05:40:21;;;;;;;8.90;1.80;;;;;;;;;;4969295;28;20521;-70
2023/07/28 05:42:47;;;;;;;1.70;1.60;;;;;;;;;;4969521;28;20441;-70
2023/07/28 05:45:13;;;;;;;2.10;2.00;;;;;;;;;;4968140;28;20438;-69
2023/07/28 05:47:39;;;;;;;3.17;1.87;;;;;;;;;;4969150;28;20441;-70
2023/07/28 05:50:05;;;;;;;1.70;1.70;;;;;;;;;;4968919;28;20492;-70
2023/07/28 05:52:31;;;;;;;2.43;2.40;;;;;;;;;;4968654;28;20513;-70
2023/07/28 05:54:57;;;;;;;6.83;1.97;;;;;;;;;;4969633;28;20965;-62
2023/07/28 05:57:23;;;;;;;1.53;1.53;;;;;;;;;;4966116;28;20577;-69
2023/07/28 05:59:49;;;;;;;1.40;1.40;;;;;;;;;;4968862;28;20914;-69
2023/07/28 06:02:15;;;;;;;1.47;1.47;;;;;;;;;;4968921;28;20484;-70
2023/07/28 06:04:41;;;;;;;2.10;2.03;;;;;;;;;;4968091;28;20430;-70
2023/07/28 06:07:07;;;;;;;1.93;1.80;;;;;;;;;;4967055;28;20458;-70
2023/07/28 06:09:33;;;;;;;1.70;1.67;;;;;;;;;;4969404;28;20429;-70
2023/07/28 06:11:59;;;;;;;1.47;1.47;;;;;;;;;;4969147;28;20557;-70
2023/07/28 06:14:25;;;;;;;1.13;1.13;;;;;;;;;;4967838;28;20445;-70
2023/07/28 06:16:52;;;;;;;3.03;2.30;;;;;;;;;;4965062;28;21104;-70
2023/07/28 06:19:23;;;;;;;1.60;1.60;;;;;;;;;;4969567;28;20491;-70
2023/07/28 06:21:50;;;;;;;1.47;1.47;;;;;;;;;;4968465;28;20445;-70
2023/07/28 06:24:16;;;;;;;1.60;1.60;;;;;;;;;;4967985;28;20814;-70
2023/07/28 06:26:42;;;;;;;2.50;2.10;;;;;;;;;;4968897;28;20445;-69
2023/07/28 06:29:08;;;;;;;1.97;1.87;;;;;;;;;;4966617;28;20453;-70
2023/07/28 06:31:34;;;;;;;1.57;1.53;;;;;;;;;;4965320;28;20445;-69
2023/07/28 06:34:00;;;;;;;2.17;2.07;;;;;;;;;;4967958;28;20430;-69
2023/07/28 06:36:27;;;;;;;1.70;1.60;;;;;;;;;;4969502;28;20473;-71
2023/07/28 06:38:55;;;;;;;1.60;1.43;;;;;;;;;;4965530;28;20936;-70
2023/07/28 06:41:21;;;;;;;3.27;1.50;;;;;;;;;;4968694;28;20439;-70
2023/07/28 06:43:48;;;;;;;2.00;1.90;;;;;;;;;;4968065;28;20449;-70
2023/07/28 06:46:14;;;;;;;15.70;2.07;;;;;;;;;;4966305;28;20442;-70
2023/07/28 06:48:40;;;;;;;1.20;1.20;;;;;;;;;;4965817;28;20461;-70
2023/07/28 06:51:07;;;;;;;1.60;1.50;;;;;;;;;;4969351;28;21062;-70
2023/07/28 06:53:34;;;;;;;1.60;1.60;;;;;;;;;;4967861;28;20474;-70
2023/07/28 06:56:00;;;;;;;2.63;1.83;;;;;;;;;;4966446;28;20561;-70
2023/07/28 06:58:26;;;;;;;2.10;1.63;;;;;;;;;;4963552;28;20543;-70
2023/07/28 07:00:54;;;;;;;1.50;1.50;;;;;;;;;;4968305;28;20965;-70
2023/07/28 07:03:20;;;;;;;2.00;1.90;;;;;;;;;;4967430;28;20446;-70
2023/07/28 07:05:46;;;;;;;1.77;1.77;;;;;;;;;;4963631;28;20453;-70
2023/07/28 07:08:12;;;;;;;2.33;2.13;;;;;;;;;;4964665;28;20454;-70
2023/07/28 07:10:38;;;;;;;3.67;1.80;;;;;;;;;;4966113;28;20446;-71
2023/07/28 07:13:04;;;;;;;1.93;1.40;;;;;;;;;;4966834;28;20429;-71
2023/07/28 07:15:31;;;;;;;1.50;1.50;;;;;;;;;;4966379;28;20442;-71
2023/07/28 07:17:57;;;;;;;2.40;2.20;;;;;;;;;;4966313;28;20486;-70
2023/07/28 07:20:24;;;;;;;1.93;1.93;;;;;;;;;;4966463;28;20422;-70
2023/07/28 07:22:51;;;;;;;3.03;2.67;;;;;;;;;;4966956;28;20433;-71
2023/07/28 07:25:17;;;;;;;2.00;2.00;;;;;;;;;;4965991;28;20426;-70
2023/07/28 07:27:43;;;;;;;1.70;1.60;;;;;;;;;;4966748;28;20425;-70
2023/07/28 07:30:10;;;;;;;2.00;1.90;;;;;;;;;;4968174;28;20461;-70
2023/07/28 07:32:36;;;;;;;1.50;1.50;;;;;;;;;;4967275;28;20434;-70
2023/07/28 07:35:02;;;;;;;1.80;1.80;;;;;;;;;;4966782;28;20444;-70
2023/07/28 07:37:28;;;;;;;3.97;2.00;;;;;;;;;;4974230;28;20520;-70
2023/07/28 07:39:55;;;;;;;3.47;1.83;;;;;;;;;;4967488;28;20424;-70
2023/07/28 07:42:24;;;;;;;2.10;2.00;;;;;;;;;;4968410;28;20445;-70
2023/07/28 07:44:50;;;;;;;2.23;2.13;;;;;;;;;;4967700;28;20832;-70
2023/07/28 07:47:16;;;;;;;3.30;1.97;;;;;;;;;;4968162;28;20926;-70
2023/07/28 07:49:43;;;;;;;1.87;1.80;;;;;;;;;;4966465;28;20492;-70
2023/07/28 07:52:10;;;;;;;1.77;1.73;;;;;;;;;;4966822;28;20466;-70
2023/07/28 07:54:36;;;;;;;1.90;1.90;;;;;;;;;;4968703;28;20479;-71
2023/07/28 07:57:02;;;;;;;1.77;1.73;;;;;;;;;;4966335;28;20477;-70
2023/07/28 07:59:30;;;;;;;1.80;1.80;;;;;;;;;;4968526;28;20434;-70
2023/07/28 08:01:58;;;;;;;2.47;2.27;;;;;;;;;;4965881;28;20438;-70
2023/07/28 08:04:24;;;;;;;2.40;2.23;;;;;;;;;;4967617;28;20443;-70
2023/07/28 08:06:50;;;;;;;4.20;2.40;;;;;;;;;;4967931;28;20949;-70
2023/07/28 08:09:16;;;;;;;2.43;2.33;;;;;;;;;;4966407;28;20434;-70
2023/07/28 08:11:42;;;;;;;2.17;1.97;;;;;;;;;;4968969;28;20488;-69
2023/07/28 08:14:08;;;;;;;3.57;1.93;;;;;;;;;;4967347;28;20445;-69
2023/07/28 08:16:34;;;;;;;1.70;1.70;;;;;;;;;;4967933;28;20577;-69
2023/07/28 08:19:00;;;;;;;1.90;1.70;;;;;;;;;;4967192;28;20491;-70
2023/07/28 08:21:26;;;;;;;2.30;1.60;;;;;;;;;;4964417;28;20449;-69
2023/07/28 08:23:52;;;;;;;4.60;1.80;;;;;;;;;;4968007;28;20437;-70
2023/07/28 08:26:18;;;;;;;2.50;2.40;;;;;;;;;;4966719;28;20898;-70
2023/07/28 08:28:44;;;;;;;8.47;2.10;;;;;;;;;;4965424;28;20454;-69
2023/07/28 08:31:10;;;;;;;1.80;1.70;;;;;;;;;;4969327;28;20850;-69
2023/07/28 08:33:36;;;;;;;3.40;1.97;;;;;;;;;;4971348;28;20441;-69
2023/07/28 08:36:02;;;;;;;1.90;1.90;;;;;;;;;;4957200;28;21072;-69
2023/07/28 08:38:28;;;;;;;2.00;1.90;;;;;;;;;;4967711;28;20442;-70
2023/07/28 08:40:58;;;;;;;1.57;1.57;;;;;;;;;;4969947;28;20429;-70
2023/07/28 08:43:24;;;;;;;1.93;1.50;;;;;;;;;;4968913;28;20433;-70
2023/07/28 08:45:51;;;;;;;1.77;1.77;;;;;;;;;;4967392;28;20430;-70
2023/07/28 08:48:17;;;;;;;1.90;1.80;;;;;;;;;;4968363;28;20429;-70
2023/07/28 08:50:43;;;;;;;2.77;2.00;;;;;;;;;;4967605;28;20827;-70
2023/07/28 08:53:09;;;;;;;3.43;1.73;;;;;;;;;;4966796;28;20466;-70
2023/07/28 08:55:35;;;;;;;1.83;1.70;;;;;;;;;;4966214;28;20434;-70
2023/07/28 08:58:21;;;;;;;2.00;1.90;;;;;;;;;;4968480;28;20611;-70
2023/07/28 09:00:50;;;;;;;5.90;1.90;;;;;;;;;;4967955;28;20418;-70
2023/07/28 09:03:17;;;;;;;3.60;2.63;;;;;;;;;;4967762;28;20426;-70
2023/07/28 09:05:46;;;;;;;10.53;9.43;;;;;;;;;;4968611;28;20414;-70
2023/07/28 09:08:12;;;;;;;8.73;2.63;;;;;;;;;;4969249;28;20452;-69
2023/07/28 09:10:42;;;;;;;2.60;1.90;;;;;;;;;;4967851;28;20438;-70
2023/07/28 09:13:12;;;;;;;1.83;1.73;;;;;;;;;;4969373;28;20857;-70
2023/07/28 09:15:38;;;;;;;2.10;1.67;;;;;;;;;;4970511;28;20973;-70
2023/07/28 09:18:07;;;;;;;1.77;1.77;;;;;;;;;;4968528;28;20504;-70
2023/07/28 09:20:35;;;;;;;1.63;1.63;;;;;;;;;;4968783;28;20426;-70
2023/07/28 09:23:01;;;;;;;2.00;1.90;;;;;;;;;;4947551;28;20454;-70
2023/07/28 09:25:28;;;;;;;1.67;1.60;;;;;;;;;;4954177;28;20472;-70
2023/07/28 09:27:54;;;;;;;1.93;1.80;;;;;;;;;;4969721;28;20487;-70
2023/07/28 09:30:21;;;;;;;1.80;1.60;;;;;;;;;;4958334;28;20550;-70
2023/07/28 09:32:55;;;;;;;2.13;1.93;;;;;;;;;;4949135;28;20479;-70
2023/07/28 09:35:21;;;;;;;2.20;2.10;;;;;;;;;;4955093;28;20469;-70
2023/07/28 09:37:48;;;;;;;2.20;2.20;;;;;;;;;;4956851;28;20495;-70
2023/07/28 09:40:16;;;;;;;2.30;2.30;;;;;;;;;;4969933;28;20999;-70
2023/07/28 09:42:44;;;;;;;9.43;1.90;;;;;;;;;;4970120;28;20442;-70
2023/07/28 09:45:10;;;;;;;1.50;1.50;;;;;;;;;;4968515;28;20449;-70
2023/07/28 09:47:37;;;;;;;2.63;2.10;;;;;;;;;;4967013;28;20442;-70
2023/07/28 09:50:05;;;;;;;2.13;2.03;;;;;;;;;;4968379;28;20433;-70
2023/07/28 09:52:35;;;;;;;1.83;1.83;;;;;;;;;;4968917;28;20580;-70
2023/07/28 09:55:06;;;;;;;2.03;1.90;;;;;;;;;;4972249;28;20514;-70
2023/07/28 09:57:33;;;;;;;6.43;2.07;;;;;;;;;;4969658;28;20564;-70
2023/07/28 10:00:00;;;;;;;1.67;1.67;;;;;;;;;;4968471;28;20460;-70
2023/07/28 10:02:26;;;;;;;2.10;2.03;;;;;;;;;;4970969;28;20964;-70
2023/07/28 10:04:53;;;;;;;1.70;1.70;;;;;;;;;;4972833;28;20448;-69
2023/07/28 10:07:19;;;;;;;1.77;1.77;;;;;;;;;;4967629;28;20445;-69
2023/07/28 10:09:45;;;;;;;2.00;2.00;;;;;;;;;;4970397;28;20774;-69
2023/07/28 10:12:25;;;;;;;2.10;2.10;;;;;;;;;;4970628;28;20474;-70
2023/07/28 10:15:00;;;;;;;1.40;1.40;;;;;;;;;;4964966;28;20804;-69
2023/07/28 10:17:32;;;;;;;1.90;1.80;;;;;;;;;;4966728;28;20568;-69
2023/07/28 10:19:58;;;;;;;2.90;2.70;;;;;;;;;;4969686;28;20440;-69
2023/07/28 10:22:26;;;;;;;1.47;1.47;;;;;;;;;;4969272;28;20434;-70
2023/07/28 10:24:53;;;;;;;1.90;1.90;;;;;;;;;;4967288;28;20438;-69
2023/07/28 10:27:34;;;;;;;1.70;1.60;;;;;;;;;;4968750;28;20446;-69
2023/07/28 10:30:01;;;;;;;1.95;1.85;;;;;;;;;;4968194;28;20425;-69
2023/07/28 10:32:37;;;;;;;3.87;3.77;;;;;;;;;;4967238;28;20591;-69
2023/07/28 10:35:07;;;;;;;6.23;2.10;;;;;;;;;;4968182;28;20438;-69
2023/07/28 10:37:34;;;;;;;1.57;1.43;;;;;;;;;;4967963;28;20478;-69
2023/07/28 10:40:21;;;;;;;1.70;1.70;;;;;;;;;;4963506;28;20453;-70
2023/07/28 10:42:47;;;;;;;2.17;1.87;;;;;;;;;;4966856;28;20452;-70
2023/07/28 10:45:13;;;;;;;1.80;1.70;;;;;;;;;;4967211;28;20522;-71
2023/07/28 10:47:40;;;;;;;2.20;2.10;;;;;;;;;;4963707;28;20466;-70
2023/07/28 10:50:06;;;;;;;2.67;2.57;;;;;;;;;;4965313;28;20924;-70
2023/07/28 10:52:32;;;;;;;2.20;2.00;;;;;;;;;;4967323;28;20526;-70
2023/07/28 10:54:58;;;;;;;2.37;2.37;;;;;;;;;;4966767;28;20584;-70
2023/07/28 10:57:26;;;;;;;1.87;1.87;;;;;;;;;;4961767;28;20502;-70
2023/07/28 10:59:52;;;;;;;3.33;1.80;;;;;;;;;;4967431;28;20436;-71
2023/07/28 11:02:18;;;;;;;2.33;2.23;;;;;;;;;;4968831;28;20988;-71
2023/07/28 11:04:47;;;;;;;1.93;1.83;;;;;;;;;;4969281;28;20525;-70
2023/07/28 11:07:13;;;;;;;1.57;1.57;;;;;;;;;;4966939;28;20434;-70
2023/07/28 11:09:39;;;;;;;1.50;1.50;;;;;;;;;;4969029;28;20449;-69
2023/07/28 11:12:10;;;;;;;4.47;2.20;;;;;;;;;;4967813;28;20453;-70
2023/07/28 11:14:36;;;;;;;2.07;1.70;;;;;;;;;;4968733;28;20469;-71
2023/07/28 11:17:02;;;;;;;2.60;2.40;;;;;;;;;;4968813;28;20482;-71
2023/07/28 11:19:28;;;;;;;4.00;2.40;;;;;;;;;;4967608;28;20444;-69
2023/07/28 11:21:54;;;;;;;3.03;3.03;;;;;;;;;;4967320;28;20541;-70
2023/07/28 11:24:21;;;;;;;2.23;2.23;;;;;;;;;;4967360;28;20902;-70
2023/07/28 11:26:47;;;;;;;5.73;2.63;;;;;;;;;;4968389;28;20484;-70
2023/07/28 11:29:13;;;;;;;3.00;2.70;;;;;;;;;;4970855;28;20785;-70
2023/07/28 11:31:41;;;;;;;2.00;2.00;;;;;;;;;;4964676;28;20529;-70
2023/07/28 11:34:18;;;;;;;2.80;2.70;;;;;;;;;;4967605;28;20568;-70
2023/07/28 11:36:44;;;;;;;3.53;3.43;;;;;;;;;;4965924;28;20504;-70
2023/07/28 11:39:10;;;;;;;2.73;2.10;;;;;;;;;;4968219;28;20470;-70
2023/07/28 11:41:38;;;;;;;10.30;2.70;;;;;;;;;;4965611;28;20430;-69
2023/07/28 11:44:05;;;;;;;2.80;2.70;;;;;;;;;;4966254;28;20446;-70
2023/07/28 11:46:39;;;;;;;2.97;2.87;;;;;;;;;;4965016;28;20438;-70
2023/07/28 11:49:07;;;;;;;3.43;2.60;;;;;;;;;;4966240;28;20953;-70
2023/07/28 11:51:38;;;;;;;3.00;2.80;;;;;;;;;;4966380;28;20426;-71
2023/07/28 11:54:04;;;;;;;2.43;2.33;;;;;;;;;;4967772;28;20922;-67
2023/07/28 11:56:30;;;;;;;5.00;2.80;;;;;;;;;;4965547;28;20984;-71
2023/07/28 11:58:56;;;;;;;3.27;2.97;;;;;;;;;;4968734;28;20340;-70
2023/07/28 12:01:23;;;;;;;2.63;2.57;;;;;;;;;;4968512;28;20472;-71
2023/07/28 12:03:49;;;;;;;3.13;2.93;;;;;;;;;;4968802;28;20429;-70
2023/07/28 12:06:15;;;;;;;2.67;2.67;;;;;;;;;;4970107;28;20849;-71
2023/07/28 12:08:41;;;;;;;3.90;2.70;;;;;;;;;;4970730;28;21005;-73
2023/07/28 12:11:13;;;;;;;2.83;2.57;;;;;;;;;;4971629;28;20422;-71
2023/07/28 12:13:51;;;;;;;3.17;2.40;;;;;;;;;;4970791;28;20426;-70
2023/07/28 12:16:39;;;;;;;2.73;2.63;;;;;;;;;;4970416;28;20961;-71
2023/07/28 12:19:05;;;;;;;3.13;2.40;;;;;;;;;;4971150;28;20437;-70
2023/07/28 12:21:31;;;;;;;7.07;6.67;;;;;;;;;;4971459;28;20414;-70
2023/07/28 12:23:57;;;;;;;3.10;3.00;;;;;;;;;;4971458;28;20437;-70
2023/07/28 12:26:23;;;;;;;2.93;2.93;;;;;;;;;;4970855;28;20426;-71
2023/07/28 12:28:49;;;;;;;3.30;2.43;;;;;;;;;;4969995;28;20422;-71
2023/07/28 12:31:15;;;;;;;6.13;3.17;;;;;;;;;;4970587;28;20460;-71
2023/07/28 12:33:41;;;;;;;9.87;2.73;;;;;;;;;;4970600;28;20507;-71
2023/07/28 12:36:07;;;;;;;2.53;2.20;;;;;;;;;;4970178;28;20913;-70
2023/07/28 12:38:34;;;;;;;3.00;2.80;;;;;;;;;;4971067;28;20868;-70
2023/07/28 12:41:00;;;;;;;3.23;3.13;;;;;;;;;;4970725;28;20438;-70
2023/07/28 12:43:28;;;;;;;6.33;2.80;;;;;;;;;;4971189;28;21202;-70
2023/07/28 12:45:54;;;;;;;13.50;3.10;;;;;;;;;;4970765;28;20434;-70
2023/07/28 12:48:20;;;;;;;3.63;2.33;;;;;;;;;;4970514;28;20792;-70
2023/07/28 12:50:46;;;;;;;3.37;3.20;;;;;;;;;;4970742;28;20460;-70
2023/07/28 12:53:12;;;;;;;2.30;2.20;;;;;;;;;;4970753;28;20469;-70
2023/07/28 12:55:38;;;;;;;3.13;3.03;;;;;;;;;;4970867;28;20424;-71
2023/07/28 12:58:04;;;;;;;4.60;2.20;;;;;;;;;;4971013;28;20977;-71
2023/07/28 13:00:30;;;;;;;3.23;2.33;;;;;;;;;;4970557;28;20561;-71
2023/07/28 13:02:56;;;;;;;3.13;2.50;;;;;;;;;;4970429;28;20510;-72
2023/07/28 13:05:22;;;;;;;3.50;2.17;;;;;;;;;;4970595;28;20456;-71
2023/07/28 13:07:48;;;;;;;2.30;2.20;;;;;;;;;;4971044;28;20422;-71
2023/07/28 13:10:14;;;;;;;2.10;2.00;;;;;;;;;;4970610;28;20436;-71
2023/07/28 13:12:40;;;;;;;2.87;2.77;;;;;;;;;;4970360;28;20433;-71
2023/07/28 13:15:06;;;;;;;1.80;1.80;;;;;;;;;;4969040;28;20482;-71
2023/07/28 13:17:32;;;;;;;2.80;2.70;;;;;;;;;;4968446;28;20489;-71
2023/07/28 13:19:59;;;;;;;1.47;1.47;;;;;;;;;;4967290;28;20541;-70
2023/07/28 13:22:26;;;;;;;3.03;1.67;;;;;;;;;;4970380;28;20999;-70
2023/07/28 13:24:53;;;;;;;1.30;1.30;;;;;;;;;;4970192;28;20444;-70
2023/07/28 13:27:19;;;;;;;4.13;1.77;;;;;;;;;;4966787;28;20988;-71
2023/07/28 13:29:45;;;;;;;5.17;2.97;;;;;;;;;;4972283;28;20430;-71
2023/07/28 13:32:24;;;;;;;1.63;1.53;;;;;;;;;;4969431;28;20525;-71
2023/07/28 13:34:49;;;;;;;2.00;1.90;;;;;;;;;;4969720;28;20429;-70
2023/07/28 13:37:15;;;;;;;8.17;5.73;;;;;;;;;;4970004;28;22069;-71
2023/07/28 13:39:43;;;;;;;3.43;3.33;;;;;;;;;;4969914;28;20533;-71
2023/07/28 13:42:09;;;;;;;2.00;2.00;;;;;;;;;;4969657;28;20525;-71
2023/07/28 13:44:35;;;;;;;1.10;1.10;;;;;;;;;;4969347;28;20433;-71
2023/07/28 13:47:01;;;;;;;1.23;1.23;;;;;;;;;;4969217;28;20930;-71
2023/07/28 13:49:27;;;;;;;0.97;0.97;;;;;;;;;;4969878;28;20426;-71
2023/07/28 13:51:53;;;;;;;1.97;1.87;;;;;;;;;;4968820;28;20821;-71
2023/07/28 13:54:19;;;;;;;2.77;2.57;;;;;;;;;;4970059;28;20433;-70
2023/07/28 13:56:45;;;;;;;1.40;1.40;;;;;;;;;;4969103;28;20478;-71
2023/07/28 13:59:11;;;;;;;7.83;5.90;;;;;;;;;;4969822;28;20437;-71
2023/07/28 14:01:37;;;;;;;0.80;0.80;;;;;;;;;;4969255;28;20453;-70
2023/07/28 14:04:03;;;;;;;2.50;1.67;;;;;;;;;;4969694;28;20788;-71
2023/07/28 14:06:29;;;;;;;3.40;1.10;;;;;;;;;;4972218;28;20517;-70
2023/07/28 14:08:55;;;;;;;1.07;0.83;;;;;;;;;;4969567;28;20922;-71
2023/07/28 14:11:21;;;;;;;0.73;0.73;;;;;;;;;;4968175;28;20434;-71
2023/07/28 14:13:47;;;;;;;0.50;0.50;;;;;;;;;;4969755;28;20922;-70
2023/07/28 14:16:13;;;;;;;0.70;0.70;;;;;;;;;;4969192;28;20501;-70
2023/07/28 14:18:40;;;;;;;1.17;0.70;;;;;;;;;;4968839;28;20448;-71
2023/07/28 14:21:06;;;;;;;2.20;0.70;;;;;;;;;;4969479;28;21011;-71
2023/07/28 14:23:32;;;;;;;0.77;0.63;;;;;;;;;;4969343;28;20440;-71
2023/07/28 14:25:58;;;;;;;0.67;0.67;;;;;;;;;;4968500;28;20744;-71
2023/07/28 14:28:24;;;;;;;0.90;0.90;;;;;;;;;;4967331;28;20438;-71
2023/07/28 14:30:51;;;;;;;0.67;0.67;;;;;;;;;;4969142;28;20432;-70
2023/07/28 14:33:18;;;;;;;0.80;0.80;;;;;;;;;;4969067;28;20426;-72
2023/07/28 14:35:45;;;;;;;0.47;0.47;;;;;;;;;;4969342;28;20455;-70
2023/07/28 14:38:11;;;;;;;0.77;0.77;;;;;;;;;;4969019;28;20512;-70
2023/07/28 14:40:37;;;;;;;0.63;0.63;;;;;;;;;;4968837;28;20432;-71